createdAt,value
2022-07-26T00:04:14.295Z,7.3
2022-07-26T00:08:56.618Z,6.3
2022-07-26T00:13:38.811Z,6.7
2022-07-26T00:18:21.126Z,6.1
2022-07-26T00:23:03.444Z,5
2022-07-26T00:27:45.647Z,6.4
2022-07-26T00:32:26.994Z,6.8
2022-07-26T00:37:09.297Z,6.5
2022-07-26T00:41:51.569Z,6.3
2022-07-26T00:46:33.820Z,5.7
2022-07-26T00:51:16.081Z,5.1
2022-07-26T00:55:58.396Z,6.6
2022-07-26T01:00:40.643Z,6.1
2022-07-26T01:05:22.943Z,6.1
2022-07-26T01:10:05.225Z,5.8
2022-07-26T01:14:47.560Z,7.2
2022-07-26T01:19:29.750Z,6.9
2022-07-26T01:24:12.048Z,7.9
2022-07-26T01:28:54.359Z,7
2022-07-26T01:33:35.580Z,7.6
2022-07-26T01:38:17.867Z,6.4
2022-07-26T01:43:00.179Z,5.8
2022-07-26T01:47:42.484Z,7.1
2022-07-26T01:52:24.701Z,8.39
2022-07-26T01:57:07.002Z,6.9
2022-07-26T02:01:49.322Z,8.6
2022-07-26T02:06:31.528Z,9
2022-07-26T02:11:13.839Z,7.8
2022-07-26T02:15:56.167Z,9.6
2022-07-26T02:20:38.350Z,7.7
2022-07-26T02:25:20.662Z,8.89
2022-07-26T02:30:02.975Z,8.3
2022-07-26T02:34:44.273Z,7.9
2022-07-26T02:39:26.486Z,7.4
2022-07-26T02:44:08.795Z,8.39
2022-07-26T02:48:51.102Z,7.2
2022-07-26T02:53:33.404Z,7.5
2022-07-26T02:58:15.620Z,6.9
2022-07-26T03:02:57.926Z,6.9
2022-07-26T03:07:40.234Z,6.5
2022-07-26T03:12:22.444Z,5.8
2022-07-26T03:17:04.750Z,6.5
2022-07-26T03:21:47.061Z,6.3
2022-07-26T03:26:29.275Z,5.9
2022-07-26T03:31:11.592Z,6.1
2022-07-26T03:35:52.895Z,6.2
2022-07-26T03:40:35.195Z,6.8
2022-07-26T03:45:17.406Z,5.3
2022-07-26T03:49:59.718Z,5.9
2022-07-26T03:54:42.025Z,6.3
2022-07-26T03:59:24.333Z,6.3
2022-07-26T04:04:06.545Z,5.9
2022-07-26T04:08:48.852Z,5.2
2022-07-26T04:13:31.155Z,6
2022-07-26T04:18:13.362Z,4.8
2022-07-26T04:22:55.695Z,5.5
2022-07-26T04:27:37.985Z,4.3
2022-07-26T04:32:20.190Z,5.6
2022-07-26T04:37:01.496Z,5
2022-07-26T04:41:43.807Z,5.5
2022-07-26T04:46:26.118Z,4.1
2022-07-26T04:51:08.326Z,5.2
2022-07-26T04:55:50.636Z,3.8
2022-07-26T05:00:32.945Z,4.8
2022-07-26T05:05:15.156Z,5.2
2022-07-26T05:09:57.460Z,4.5
2022-07-26T05:14:39.771Z,4.6
2022-07-26T05:19:22.077Z,4.6
2022-07-26T05:24:04.289Z,3.6
2022-07-26T05:33:28.910Z,4.19
2022-07-26T05:38:10.212Z,3.8
2022-07-26T05:42:52.416Z,3.7
2022-07-26T05:47:34.724Z,3.9
2022-07-26T05:52:17.035Z,3.9
2022-07-26T05:56:59.248Z,3.7
2022-07-26T06:01:41.554Z,3.3
2022-07-26T06:06:23.861Z,3.7
2022-07-26T06:11:06.170Z,3.3
2022-07-26T06:15:48.399Z,2.6
2022-07-26T06:20:30.687Z,2.6
2022-07-26T06:25:12.996Z,2.8
2022-07-26T06:29:55.208Z,2.8
2022-07-26T06:34:37.515Z,2.8
2022-07-26T06:39:18.820Z,3.4
2022-07-26T06:44:01.125Z,2.9
2022-07-26T06:48:43.337Z,3.2
2022-07-26T06:53:25.609Z,2.9
2022-07-26T06:58:08.047Z,3.3
2022-07-26T07:02:50.238Z,2.6
2022-07-26T07:07:32.435Z,3.5
2022-07-26T07:12:14.747Z,3
2022-07-26T07:16:57.059Z,2.6
2022-07-26T07:21:39.265Z,2.2
2022-07-26T07:26:21.576Z,2.5
2022-07-26T07:31:03.881Z,2.4
2022-07-26T07:35:46.195Z,2.7
2022-07-26T07:40:27.402Z,2.9
2022-07-26T07:49:52.019Z,3.6
2022-07-26T07:54:34.326Z,3.7
2022-07-26T07:59:16.542Z,2.4
2022-07-26T08:08:41.153Z,3
2022-07-26T08:13:23.372Z,2.3
2022-07-26T08:18:05.672Z,2.4
2022-07-26T08:22:47.978Z,2.6
2022-07-26T08:27:30.198Z,2.5
2022-07-26T08:32:12.494Z,2.09
2022-07-26T08:36:54.813Z,2
2022-07-26T08:41:36.118Z,2.3
2022-07-26T08:46:18.321Z,1.6
2022-07-26T08:51:00.626Z,2.3
2022-07-26T08:55:43.249Z,1.4
2022-07-26T09:00:25.255Z,1.7
2022-07-26T09:05:07.462Z,1.6
2022-07-26T09:09:49.802Z,1.5
2022-07-26T09:14:32.071Z,1.6
2022-07-26T09:19:14.282Z,0.9
2022-07-26T09:23:56.587Z,1.6
2022-07-26T09:28:38.899Z,1.8
2022-07-26T09:33:21.109Z,1.8
2022-07-26T09:38:03.413Z,1.2
2022-07-26T09:42:44.721Z,1.1
2022-07-26T09:47:27.025Z,1.5
2022-07-26T09:52:09.239Z,1.1
2022-07-26T09:56:51.550Z,1.5
2022-07-26T10:01:33.860Z,1.3
2022-07-26T10:06:16.163Z,2.2
2022-07-26T10:15:40.687Z,0.9
2022-07-26T10:20:22.968Z,1
2022-07-26T10:25:05.277Z,0.9
2022-07-26T10:29:47.480Z,1.4
2022-07-26T10:34:29.790Z,1.7
2022-07-26T10:39:12.102Z,1.1
2022-07-26T10:43:53.416Z,0.9
2022-07-26T10:48:35.615Z,1
2022-07-26T10:53:17.923Z,0.7
2022-07-26T10:58:00.235Z,0.7
2022-07-26T11:02:42.544Z,0.8
2022-07-26T11:07:24.750Z,1
2022-07-26T11:12:07.059Z,1
2022-07-26T11:16:49.372Z,1.1
2022-07-26T11:21:31.574Z,1.1
2022-07-26T11:26:13.886Z,1.1
2022-07-26T11:30:56.212Z,0.9
2022-07-26T11:35:38.535Z,1
2022-07-26T11:40:20.712Z,1.2
2022-07-26T11:45:02.024Z,0.7
2022-07-26T11:49:44.330Z,0.8
2022-07-26T11:54:26.649Z,1.8
2022-07-26T11:59:08.849Z,0.8
2022-07-26T12:03:51.159Z,1
2022-07-26T12:08:33.479Z,2.5
2022-07-26T12:13:15.677Z,0.6
2022-07-26T12:17:58.126Z,0.6
2022-07-26T12:22:40.296Z,0.9
2022-07-26T12:27:22.607Z,0.7
2022-07-26T12:32:04.817Z,0.6
2022-07-26T12:36:47.131Z,2.09
2022-07-26T12:41:29.440Z,0.5
2022-07-26T12:46:10.746Z,0.7
2022-07-26T12:50:53.060Z,1.5
2022-07-26T12:55:35.296Z,0.7
2022-07-26T13:00:17.599Z,0.6
2022-07-26T13:04:59.970Z,0.7
2022-07-26T13:09:42.198Z,0.3
2022-07-26T13:14:24.402Z,0.4
2022-07-26T13:19:06.718Z,0.5
2022-07-26T13:23:49.031Z,0.7
2022-07-26T13:28:31.336Z,0.6
2022-07-26T13:33:13.549Z,0.6
2022-07-26T13:37:55.852Z,0.5
2022-07-26T13:42:38.163Z,0.4
2022-07-26T13:47:19.469Z,0.4
2022-07-26T13:52:01.680Z,0.6
2022-07-26T13:56:43.996Z,0.9
2022-07-26T14:01:26.301Z,0.6
2022-07-26T14:06:08.603Z,0.7
2022-07-26T14:10:50.823Z,0.6
2022-07-26T14:15:33.134Z,0.6
2022-07-26T14:20:15.431Z,0.3
2022-07-26T14:24:57.750Z,0.3
2022-07-26T14:29:39.954Z,0.4
2022-07-26T14:34:22.256Z,0.6
2022-07-26T14:39:04.569Z,0.4
2022-07-26T14:43:46.874Z,1.2
2022-07-26T14:48:28.097Z,0.4
2022-07-26T14:53:10.394Z,0.8
2022-07-26T14:57:52.703Z,0.5
2022-07-26T15:02:35.014Z,0.7
2022-07-26T15:07:17.219Z,0.7
2022-07-26T15:11:59.532Z,0.3
2022-07-26T15:16:40.842Z,0.5
2022-07-26T15:21:23.142Z,0.4
2022-07-26T15:26:05.455Z,0.5
2022-07-26T15:30:47.660Z,0.2
2022-07-26T15:35:29.970Z,0.8
2022-07-26T15:40:12.298Z,0.7
2022-07-26T15:44:54.489Z,0.4
2022-07-26T15:49:36.796Z,0.4
2022-07-26T15:54:19.105Z,1.1
2022-07-26T15:59:01.416Z,1.2
2022-07-26T16:03:43.628Z,0.5
2022-07-26T16:08:25.939Z,1
2022-07-26T16:13:08.242Z,0.4
2022-07-26T16:17:49.547Z,0.5
2022-07-26T16:22:31.767Z,0.4
2022-07-26T16:27:14.064Z,0.7
2022-07-26T16:31:56.371Z,0.7
2022-07-26T16:36:38.588Z,0.4
2022-07-26T16:41:20.889Z,0.3
2022-07-26T16:46:03.199Z,0.3
2022-07-26T16:50:45.506Z,0.1
2022-07-26T16:55:27.716Z,0.3
2022-07-26T17:00:10.025Z,0.3
2022-07-26T17:04:52.328Z,0.7
2022-07-26T17:09:34.538Z,2.9
2022-07-26T17:14:16.851Z,0.2
2022-07-26T17:18:58.158Z,0.3
2022-07-26T17:23:40.463Z,0.3
2022-07-26T17:28:22.773Z,0.3
2022-07-26T17:33:04.982Z,0.6
2022-07-26T17:37:47.294Z,0.6
2022-07-26T17:42:29.599Z,0.5
2022-07-26T17:47:11.812Z,0.4
2022-07-26T17:51:54.114Z,0.5
2022-07-26T17:56:36.427Z,0.4
2022-07-26T18:01:18.733Z,0.3
2022-07-26T18:06:00.939Z,0.9
2022-07-26T18:10:43.250Z,0.5
2022-07-26T18:15:25.562Z,0.3
2022-07-26T18:20:06.869Z,0.2
2022-07-26T18:24:49.081Z,0.5
2022-07-26T18:29:31.381Z,0.8
2022-07-26T18:34:13.689Z,0.6
2022-07-26T18:38:55.899Z,0.6
2022-07-26T18:43:38.206Z,0.6
2022-07-26T18:48:20.512Z,0.8
2022-07-26T18:53:02.719Z,0.7
2022-07-26T18:57:45.032Z,0.5
2022-07-26T19:07:09.652Z,0.5
2022-07-26T19:11:51.855Z,0.9
2022-07-26T19:16:34.168Z,0.7
2022-07-26T19:21:15.473Z,0.7
2022-07-26T19:25:57.679Z,0.7
2022-07-26T19:30:40.002Z,0.6
2022-07-26T19:35:22.296Z,0.9
2022-07-26T19:40:04.618Z,0.9
2022-07-26T19:44:46.819Z,0.7
2022-07-26T19:49:29.123Z,0.8
2022-07-26T19:54:11.433Z,0.6
2022-07-26T19:58:53.656Z,1.4
2022-07-26T20:03:35.956Z,1
2022-07-26T20:08:18.261Z,0.6
2022-07-26T20:13:00.470Z,1.3
2022-07-26T20:17:42.774Z,1.4
2022-07-26T20:22:24.093Z,1.6
2022-07-26T20:27:06.390Z,1
2022-07-26T20:31:48.623Z,1.2
2022-07-26T20:36:30.923Z,1.4
2022-07-26T20:41:13.229Z,1.4
2022-07-26T20:45:55.539Z,1.3
2022-07-26T20:50:37.734Z,1.1
2022-07-26T20:55:20.048Z,1.6
2022-07-26T21:00:02.353Z,1
2022-07-26T21:04:44.567Z,1.4
2022-07-26T21:09:26.874Z,1.6
2022-07-26T21:14:09.184Z,1.4
2022-07-26T21:18:51.387Z,1.3
2022-07-26T21:23:32.692Z,1.1
2022-07-26T21:28:15.003Z,1.1
2022-07-26T21:32:57.310Z,1.4
2022-07-26T21:37:39.524Z,1.6
2022-07-26T21:42:21.829Z,1.5
2022-07-26T21:47:04.149Z,1.7
2022-07-26T21:51:46.445Z,1.4
2022-07-26T21:56:28.654Z,1.5
2022-07-26T22:01:10.960Z,1.4
2022-07-26T22:05:53.279Z,1.3
2022-07-26T22:10:35.513Z,1.5
2022-07-26T22:15:17.794Z,1.6
2022-07-26T22:20:00.099Z,1.3
2022-07-26T22:24:41.409Z,1.7
2022-07-26T22:29:23.619Z,2.3
2022-07-26T22:34:05.925Z,2.2
2022-07-26T22:38:48.236Z,1.8
2022-07-26T22:43:30.435Z,2.09
2022-07-26T22:48:12.745Z,2
2022-07-26T22:52:55.056Z,2.6
2022-07-26T22:57:37.368Z,1.6
2022-07-26T23:02:19.570Z,2.5
2022-07-26T23:07:01.880Z,1.6
2022-07-26T23:11:44.189Z,2.3
2022-07-26T23:16:26.401Z,1.7
2022-07-26T23:21:08.706Z,2.2
2022-07-26T23:25:50.017Z,2.4
2022-07-26T23:30:32.321Z,2.6
2022-07-26T23:35:14.529Z,2
2022-07-26T23:39:56.836Z,1.9
2022-07-26T23:44:39.159Z,2.09
2022-07-26T23:49:21.358Z,2.4
2022-07-26T23:54:03.665Z,2.4
2022-07-26T23:58:45.974Z,2.3
